sensor_id;sensor_type;location;lat;lon;timestamp;P1;durP1;ratioP1;P2;durP2;ratioP2
23129;SDS011;11734;51.046;13.778;2023-01-28T00:01:15;20.43;;;12.83;;
23129;SDS011;11734;51.046;13.778;2023-01-28T00:03:43;18.57;;;11.80;;
23129;SDS011;11734;51.046;13.778;2023-01-28T00:06:12;17.03;;;10.87;;
23129;SDS011;11734;51.046;13.778;2023-01-28T00:08:40;16.27;;;10.43;;
23129;SDS011;11734;51.046;13.778;2023-01-28T00:11:09;16.30;;;10.23;;
23129;SDS011;11734;51.046;13.778;2023-01-28T00:13:36;12.90;;;9.00;;
23129;SDS011;11734;51.046;13.778;2023-01-28T00:16:04;13.17;;;9.40;;
23129;SDS011;11734;51.046;13.778;2023-01-28T00:18:33;11.97;;;8.53;;
23129;SDS011;11734;51.046;13.778;2023-01-28T00:21:05;11.23;;;8.83;;
23129;SDS011;11734;51.046;13.778;2023-01-28T00:23:34;11.77;;;8.67;;
23129;SDS011;11734;51.046;13.778;2023-01-28T00:26:03;11.47;;;8.50;;
23129;SDS011;11734;51.046;13.778;2023-01-28T00:28:31;11.87;;;8.23;;
23129;SDS011;11734;51.046;13.778;2023-01-28T00:31:20;11.93;;;8.33;;
23129;SDS011;11734;51.046;13.778;2023-01-28T00:33:48;10.83;;;8.10;;
23129;SDS011;11734;51.046;13.778;2023-01-28T00:36:16;13.07;;;8.37;;
23129;SDS011;11734;51.046;13.778;2023-01-28T00:38:48;11.40;;;7.57;;
23129;SDS011;11734;51.046;13.778;2023-01-28T00:41:17;10.37;;;7.93;;
23129;SDS011;11734;51.046;13.778;2023-01-28T00:43:49;8.93;;;6.87;;
23129;SDS011;11734;51.046;13.778;2023-01-28T00:46:17;10.00;;;7.13;;
23129;SDS011;11734;51.046;13.778;2023-01-28T00:48:45;9.83;;;7.60;;
23129;SDS011;11734;51.046;13.778;2023-01-28T00:51:12;9.63;;;6.83;;
23129;SDS011;11734;51.046;13.778;2023-01-28T00:53:41;11.20;;;7.47;;
23129;SDS011;11734;51.046;13.778;2023-01-28T00:56:09;8.80;;;7.07;;
23129;SDS011;11734;51.046;13.778;2023-01-28T00:58:37;9.67;;;7.67;;
23129;SDS011;11734;51.046;13.778;2023-01-28T01:01:08;10.27;;;7.47;;
23129;SDS011;11734;51.046;13.778;2023-01-28T01:03:36;9.00;;;7.30;;
23129;SDS011;11734;51.046;13.778;2023-01-28T01:06:04;10.50;;;7.63;;
23129;SDS011;11734;51.046;13.778;2023-01-28T01:08:31;10.23;;;7.87;;
23129;SDS011;11734;51.046;13.778;2023-01-28T01:11:07;8.30;;;7.17;;
23129;SDS011;11734;51.046;13.778;2023-01-28T01:13:35;9.70;;;7.63;;
23129;SDS011;11734;51.046;13.778;2023-01-28T01:16:04;9.00;;;7.33;;
23129;SDS011;11734;51.046;13.778;2023-01-28T01:18:32;12.90;;;8.60;;
23129;SDS011;11734;51.046;13.778;2023-01-28T01:21:00;9.70;;;8.00;;
23129;SDS011;11734;51.046;13.778;2023-01-28T01:23:28;10.70;;;7.90;;
23129;SDS011;11734;51.046;13.778;2023-01-28T01:25:55;10.07;;;7.97;;
23129;SDS011;11734;51.046;13.778;2023-01-28T01:28:24;10.30;;;7.80;;
23129;SDS011;11734;51.046;13.778;2023-01-28T01:30:57;11.27;;;8.27;;
23129;SDS011;11734;51.046;13.778;2023-01-28T01:33:27;10.97;;;7.97;;
23129;SDS011;11734;51.046;13.778;2023-01-28T01:35:54;11.80;;;8.50;;
23129;SDS011;11734;51.046;13.778;2023-01-28T01:38:24;11.60;;;8.33;;
23129;SDS011;11734;51.046;13.778;2023-01-28T01:40:54;12.73;;;8.87;;
23129;SDS011;11734;51.046;13.778;2023-01-28T01:43:23;12.37;;;8.77;;
23129;SDS011;11734;51.046;13.778;2023-01-28T01:45:58;12.33;;;8.37;;
23129;SDS011;11734;51.046;13.778;2023-01-28T01:48:31;13.67;;;8.90;;
23129;SDS011;11734;51.046;13.778;2023-01-28T01:53:31;13.53;;;9.30;;
23129;SDS011;11734;51.046;13.778;2023-01-28T01:55:59;11.80;;;8.73;;
23129;SDS011;11734;51.046;13.778;2023-01-28T01:58:29;12.73;;;9.30;;
23129;SDS011;11734;51.046;13.778;2023-01-28T02:00:57;11.90;;;8.93;;
23129;SDS011;11734;51.046;13.778;2023-01-28T02:03:28;11.03;;;8.27;;
23129;SDS011;11734;51.046;13.778;2023-01-28T02:05:57;13.47;;;8.43;;
23129;SDS011;11734;51.046;13.778;2023-01-28T02:08:25;12.13;;;8.63;;
23129;SDS011;11734;51.046;13.778;2023-01-28T02:10:54;12.53;;;8.97;;
23129;SDS011;11734;51.046;13.778;2023-01-28T02:13:23;11.80;;;8.37;;
23129;SDS011;11734;51.046;13.778;2023-01-28T02:15:52;12.13;;;9.03;;
23129;SDS011;11734;51.046;13.778;2023-01-28T02:18:21;13.13;;;7.97;;
23129;SDS011;11734;51.046;13.778;2023-01-28T02:21:56;9.63;;;8.13;;
23129;SDS011;11734;51.046;13.778;2023-01-28T02:29:21;11.83;;;8.30;;
23129;SDS011;11734;51.046;13.778;2023-01-28T02:31:57;12.43;;;8.07;;
23129;SDS011;11734;51.046;13.778;2023-01-28T02:34:33;10.80;;;7.97;;
23129;SDS011;11734;51.046;13.778;2023-01-28T02:37:03;10.80;;;8.07;;
23129;SDS011;11734;51.046;13.778;2023-01-28T02:39:35;8.93;;;7.60;;
23129;SDS011;11734;51.046;13.778;2023-01-28T02:42:05;12.03;;;8.87;;
23129;SDS011;11734;51.046;13.778;2023-01-28T02:44:33;10.30;;;8.23;;
23129;SDS011;11734;51.046;13.778;2023-01-28T02:47:01;12.37;;;8.60;;
23129;SDS011;11734;51.046;13.778;2023-01-28T02:55:22;12.80;;;9.53;;
23129;SDS011;11734;51.046;13.778;2023-01-28T02:57:54;13.83;;;9.10;;
23129;SDS011;11734;51.046;13.778;2023-01-28T03:03:49;12.40;;;9.13;;
23129;SDS011;11734;51.046;13.778;2023-01-28T03:06:23;11.47;;;8.90;;
23129;SDS011;11734;51.046;13.778;2023-01-28T03:08:52;11.27;;;9.00;;
23129;SDS011;11734;51.046;13.778;2023-01-28T03:11:45;13.90;;;9.47;;
23129;SDS011;11734;51.046;13.778;2023-01-28T03:14:33;13.07;;;9.17;;
23129;SDS011;11734;51.046;13.778;2023-01-28T03:17:40;13.57;;;9.60;;
23129;SDS011;11734;51.046;13.778;2023-01-28T03:20:29;10.80;;;8.90;;
23129;SDS011;11734;51.046;13.778;2023-01-28T03:23:21;12.40;;;8.70;;
23129;SDS011;11734;51.046;13.778;2023-01-28T03:26:08;12.07;;;8.93;;
23129;SDS011;11734;51.046;13.778;2023-01-28T03:28:56;11.90;;;8.73;;
23129;SDS011;11734;51.046;13.778;2023-01-28T03:31:43;11.67;;;8.77;;
23129;SDS011;11734;51.046;13.778;2023-01-28T03:34:29;10.90;;;8.53;;
23129;SDS011;11734;51.046;13.778;2023-01-28T03:37:16;13.13;;;8.90;;
23129;SDS011;11734;51.046;13.778;2023-01-28T03:39:49;15.10;;;9.10;;
23129;SDS011;11734;51.046;13.778;2023-01-28T03:42:17;11.57;;;9.00;;
23129;SDS011;11734;51.046;13.778;2023-01-28T03:45:01;11.50;;;8.80;;
23129;SDS011;11734;51.046;13.778;2023-01-28T03:47:31;8.63;;;7.73;;
23129;SDS011;11734;51.046;13.778;2023-01-28T03:50:01;11.13;;;8.47;;
23129;SDS011;11734;51.046;13.778;2023-01-28T03:52:35;13.63;;;8.97;;
23129;SDS011;11734;51.046;13.778;2023-01-28T03:55:26;11.47;;;8.33;;
23129;SDS011;11734;51.046;13.778;2023-01-28T03:57:53;12.77;;;9.23;;
23129;SDS011;11734;51.046;13.778;2023-01-28T04:00:21;12.33;;;9.10;;
23129;SDS011;11734;51.046;13.778;2023-01-28T04:02:49;10.87;;;8.47;;
23129;SDS011;11734;51.046;13.778;2023-01-28T04:05:18;11.63;;;8.00;;
23129;SDS011;11734;51.046;13.778;2023-01-28T04:07:47;11.63;;;8.23;;
23129;SDS011;11734;51.046;13.778;2023-01-28T04:10:39;9.30;;;7.67;;
23129;SDS011;11734;51.046;13.778;2023-01-28T04:13:21;9.20;;;8.00;;
23129;SDS011;11734;51.046;13.778;2023-01-28T04:15:49;10.73;;;8.57;;
23129;SDS011;11734;51.046;13.778;2023-01-28T04:18:17;11.53;;;8.27;;
23129;SDS011;11734;51.046;13.778;2023-01-28T04:20:48;11.00;;;8.70;;
23129;SDS011;11734;51.046;13.778;2023-01-28T04:23:16;11.07;;;8.43;;
23129;SDS011;11734;51.046;13.778;2023-01-28T04:25:44;12.23;;;8.93;;
23129;SDS011;11734;51.046;13.778;2023-01-28T04:28:11;10.57;;;8.40;;
23129;SDS011;11734;51.046;13.778;2023-01-28T04:30:38;11.00;;;7.63;;
23129;SDS011;11734;51.046;13.778;2023-01-28T04:33:06;8.53;;;7.20;;
23129;SDS011;11734;51.046;13.778;2023-01-28T04:35:59;7.93;;;6.80;;
23129;SDS011;11734;51.046;13.778;2023-01-28T04:38:36;10.17;;;6.73;;
23129;SDS011;11734;51.046;13.778;2023-01-28T04:41:09;8.63;;;6.13;;
23129;SDS011;11734;51.046;13.778;2023-01-28T04:43:37;7.93;;;5.87;;
23129;SDS011;11734;51.046;13.778;2023-01-28T04:46:20;8.33;;;5.37;;
23129;SDS011;11734;51.046;13.778;2023-01-28T04:49:00;5.67;;;5.03;;
23129;SDS011;11734;51.046;13.778;2023-01-28T04:51:39;8.90;;;5.43;;
23129;SDS011;11734;51.046;13.778;2023-01-28T04:54:15;7.13;;;5.50;;
23129;SDS011;11734;51.046;13.778;2023-01-28T04:56:42;6.40;;;5.70;;
23129;SDS011;11734;51.046;13.778;2023-01-28T04:59:10;5.83;;;5.07;;
23129;SDS011;11734;51.046;13.778;2023-01-28T05:01:37;6.27;;;5.67;;
23129;SDS011;11734;51.046;13.778;2023-01-28T05:04:05;6.83;;;5.30;;
23129;SDS011;11734;51.046;13.778;2023-01-28T05:06:36;8.27;;;5.70;;
23129;SDS011;11734;51.046;13.778;2023-01-28T05:09:29;6.37;;;5.67;;
23129;SDS011;11734;51.046;13.778;2023-01-28T05:11:57;6.17;;;4.93;;
23129;SDS011;11734;51.046;13.778;2023-01-28T05:14:24;6.67;;;4.60;;
23129;SDS011;11734;51.046;13.778;2023-01-28T05:17:03;8.17;;;5.67;;
23129;SDS011;11734;51.046;13.778;2023-01-28T05:19:31;8.00;;;4.70;;
23129;SDS011;11734;51.046;13.778;2023-01-28T05:22:00;6.03;;;4.60;;
23129;SDS011;11734;51.046;13.778;2023-01-28T05:24:37;6.63;;;4.73;;
23129;SDS011;11734;51.046;13.778;2023-01-28T05:27:04;6.87;;;5.00;;
23129;SDS011;11734;51.046;13.778;2023-01-28T05:29:33;6.03;;;4.53;;
23129;SDS011;11734;51.046;13.778;2023-01-28T05:32:00;5.67;;;4.80;;
23129;SDS011;11734;51.046;13.778;2023-01-28T05:34:29;5.70;;;4.87;;
23129;SDS011;11734;51.046;13.778;2023-01-28T05:37:00;5.57;;;5.03;;
23129;SDS011;11734;51.046;13.778;2023-01-28T05:39:30;6.70;;;5.20;;
23129;SDS011;11734;51.046;13.778;2023-01-28T05:41:58;5.23;;;4.70;;
23129;SDS011;11734;51.046;13.778;2023-01-28T05:44:26;6.33;;;5.10;;
23129;SDS011;11734;51.046;13.778;2023-01-28T05:47:12;7.43;;;5.50;;
23129;SDS011;11734;51.046;13.778;2023-01-28T05:49:49;7.67;;;5.30;;
23129;SDS011;11734;51.046;13.778;2023-01-28T05:52:34;6.40;;;5.50;;
23129;SDS011;11734;51.046;13.778;2023-01-28T05:55:03;6.67;;;5.50;;
23129;SDS011;11734;51.046;13.778;2023-01-28T05:57:32;5.97;;;5.37;;
23129;SDS011;11734;51.046;13.778;2023-01-28T06:00:00;6.13;;;5.20;;
23129;SDS011;11734;51.046;13.778;2023-01-28T06:02:28;7.53;;;5.87;;
23129;SDS011;11734;51.046;13.778;2023-01-28T06:04:58;6.87;;;5.73;;
23129;SDS011;11734;51.046;13.778;2023-01-28T06:07:26;8.00;;;5.57;;
23129;SDS011;11734;51.046;13.778;2023-01-28T06:09:53;10.27;;;5.70;;
23129;SDS011;11734;51.046;13.778;2023-01-28T06:12:38;6.13;;;5.53;;
23129;SDS011;11734;51.046;13.778;2023-01-28T06:15:25;6.27;;;5.20;;
23129;SDS011;11734;51.046;13.778;2023-01-28T06:18:11;6.03;;;5.27;;
23129;SDS011;11734;51.046;13.778;2023-01-28T06:20:39;6.17;;;5.20;;
23129;SDS011;11734;51.046;13.778;2023-01-28T06:23:06;5.80;;;5.20;;
23129;SDS011;11734;51.046;13.778;2023-01-28T06:25:33;7.93;;;5.80;;
23129;SDS011;11734;51.046;13.778;2023-01-28T06:28:07;6.20;;;5.43;;
23129;SDS011;11734;51.046;13.778;2023-01-28T06:30:35;5.83;;;5.23;;
23129;SDS011;11734;51.046;13.778;2023-01-28T06:33:02;6.67;;;5.30;;
23129;SDS011;11734;51.046;13.778;2023-01-28T06:35:29;5.93;;;5.33;;
23129;SDS011;11734;51.046;13.778;2023-01-28T06:37:57;7.37;;;6.00;;
23129;SDS011;11734;51.046;13.778;2023-01-28T06:40:24;7.50;;;6.00;;
23129;SDS011;11734;51.046;13.778;2023-01-28T06:42:51;7.00;;;6.07;;
23129;SDS011;11734;51.046;13.778;2023-01-28T06:45:18;8.20;;;6.33;;
23129;SDS011;11734;51.046;13.778;2023-01-28T06:47:46;7.67;;;6.10;;
23129;SDS011;11734;51.046;13.778;2023-01-28T06:50:13;7.93;;;5.57;;
23129;SDS011;11734;51.046;13.778;2023-01-28T06:52:41;5.70;;;5.07;;
23129;SDS011;11734;51.046;13.778;2023-01-28T06:55:08;7.03;;;5.10;;
23129;SDS011;11734;51.046;13.778;2023-01-28T06:57:36;7.03;;;5.43;;
23129;SDS011;11734;51.046;13.778;2023-01-28T07:00:04;8.20;;;6.27;;
23129;SDS011;11734;51.046;13.778;2023-01-28T07:02:32;9.47;;;7.67;;
23129;SDS011;11734;51.046;13.778;2023-01-28T07:04:59;6.57;;;5.27;;
23129;SDS011;11734;51.046;13.778;2023-01-28T07:07:27;4.97;;;4.47;;
23129;SDS011;11734;51.046;13.778;2023-01-28T07:09:54;5.87;;;5.20;;
23129;SDS011;11734;51.046;13.778;2023-01-28T07:12:22;7.47;;;5.30;;
23129;SDS011;11734;51.046;13.778;2023-01-28T07:14:49;6.53;;;5.10;;
23129;SDS011;11734;51.046;13.778;2023-01-28T07:17:16;7.63;;;4.77;;
23129;SDS011;11734;51.046;13.778;2023-01-28T07:19:43;8.30;;;4.30;;
23129;SDS011;11734;51.046;13.778;2023-01-28T07:22:11;5.20;;;4.53;;
23129;SDS011;11734;51.046;13.778;2023-01-28T07:24:38;5.20;;;4.70;;
23129;SDS011;11734;51.046;13.778;2023-01-28T07:27:06;5.50;;;4.17;;
23129;SDS011;11734;51.046;13.778;2023-01-28T07:29:33;4.87;;;4.10;;
23129;SDS011;11734;51.046;13.778;2023-01-28T07:32:01;36.07;;;20.47;;
23129;SDS011;11734;51.046;13.778;2023-01-28T07:34:30;4.93;;;4.43;;
23129;SDS011;11734;51.046;13.778;2023-01-28T07:36:58;6.83;;;6.00;;
23129;SDS011;11734;51.046;13.778;2023-01-28T07:39:25;4.20;;;3.77;;
23129;SDS011;11734;51.046;13.778;2023-01-28T07:41:52;4.47;;;3.83;;
23129;SDS011;11734;51.046;13.778;2023-01-28T07:44:43;5.40;;;4.10;;
23129;SDS011;11734;51.046;13.778;2023-01-28T07:47:10;4.83;;;3.90;;
23129;SDS011;11734;51.046;13.778;2023-01-28T07:49:38;4.37;;;3.97;;
23129;SDS011;11734;51.046;13.778;2023-01-28T07:52:06;4.40;;;3.73;;
23129;SDS011;11734;51.046;13.778;2023-01-28T07:54:33;4.50;;;3.23;;
23129;SDS011;11734;51.046;13.778;2023-01-28T07:57:00;3.57;;;3.10;;
23129;SDS011;11734;51.046;13.778;2023-01-28T07:59:27;4.53;;;3.13;;
23129;SDS011;11734;51.046;13.778;2023-01-28T08:01:55;3.73;;;3.20;;
23129;SDS011;11734;51.046;13.778;2023-01-28T08:04:22;4.70;;;3.50;;
23129;SDS011;11734;51.046;13.778;2023-01-28T08:06:49;3.67;;;3.37;;
23129;SDS011;11734;51.046;13.778;2023-01-28T08:09:17;4.53;;;3.80;;
23129;SDS011;11734;51.046;13.778;2023-01-28T08:11:44;4.30;;;3.80;;
23129;SDS011;11734;51.046;13.778;2023-01-28T08:14:12;3.87;;;3.20;;
23129;SDS011;11734;51.046;13.778;2023-01-28T08:16:39;4.03;;;3.63;;
23129;SDS011;11734;51.046;13.778;2023-01-28T08:19:07;4.43;;;3.90;;
23129;SDS011;11734;51.046;13.778;2023-01-28T08:21:35;6.63;;;4.80;;
23129;SDS011;11734;51.046;13.778;2023-01-28T08:24:02;4.60;;;3.67;;
23129;SDS011;11734;51.046;13.778;2023-01-28T08:26:30;4.20;;;3.73;;
23129;SDS011;11734;51.046;13.778;2023-01-28T08:28:57;5.37;;;3.60;;
23129;SDS011;11734;51.046;13.778;2023-01-28T08:31:26;4.77;;;4.13;;
23129;SDS011;11734;51.046;13.778;2023-01-28T08:33:54;6.10;;;4.20;;
23129;SDS011;11734;51.046;13.778;2023-01-28T08:36:22;3.97;;;3.57;;
23129;SDS011;11734;51.046;13.778;2023-01-28T08:38:52;3.80;;;3.33;;
23129;SDS011;11734;51.046;13.778;2023-01-28T08:41:20;5.57;;;3.53;;
23129;SDS011;11734;51.046;13.778;2023-01-28T08:43:48;4.27;;;3.70;;
23129;SDS011;11734;51.046;13.778;2023-01-28T08:46:15;5.03;;;4.00;;
23129;SDS011;11734;51.046;13.778;2023-01-28T08:48:43;4.83;;;3.30;;
23129;SDS011;11734;51.046;13.778;2023-01-28T08:51:10;3.97;;;3.60;;
23129;SDS011;11734;51.046;13.778;2023-01-28T08:53:37;4.00;;;3.60;;
23129;SDS011;11734;51.046;13.778;2023-01-28T08:56:05;4.33;;;3.40;;
23129;SDS011;11734;51.046;13.778;2023-01-28T08:58:32;5.10;;;4.03;;
23129;SDS011;11734;51.046;13.778;2023-01-28T09:01:04;4.70;;;3.90;;
23129;SDS011;11734;51.046;13.778;2023-01-28T09:03:32;6.23;;;4.10;;
23129;SDS011;11734;51.046;13.778;2023-01-28T09:06:01;4.37;;;3.90;;
23129;SDS011;11734;51.046;13.778;2023-01-28T09:08:29;4.10;;;3.70;;
23129;SDS011;11734;51.046;13.778;2023-01-28T09:10:57;4.70;;;4.20;;
23129;SDS011;11734;51.046;13.778;2023-01-28T09:13:24;4.17;;;3.77;;
23129;SDS011;11734;51.046;13.778;2023-01-28T09:15:52;4.53;;;3.77;;
23129;SDS011;11734;51.046;13.778;2023-01-28T09:18:19;4.93;;;4.17;;
23129;SDS011;11734;51.046;13.778;2023-01-28T09:20:46;4.83;;;3.73;;
23129;SDS011;11734;51.046;13.778;2023-01-28T09:23:14;3.60;;;3.30;;
23129;SDS011;11734;51.046;13.778;2023-01-28T09:25:41;4.67;;;3.90;;
23129;SDS011;11734;51.046;13.778;2023-01-28T09:28:26;3.83;;;3.43;;
23129;SDS011;11734;51.046;13.778;2023-01-28T09:33:29;3.77;;;3.23;;
23129;SDS011;11734;51.046;13.778;2023-01-28T09:36:01;4.10;;;3.70;;
23129;SDS011;11734;51.046;13.778;2023-01-28T09:38:28;4.53;;;3.87;;
23129;SDS011;11734;51.046;13.778;2023-01-28T09:40:56;4.70;;;4.20;;
23129;SDS011;11734;51.046;13.778;2023-01-28T09:46:10;6.87;;;4.13;;
23129;SDS011;11734;51.046;13.778;2023-01-28T09:48:50;33.37;;;22.10;;
23129;SDS011;11734;51.046;13.778;2023-01-28T09:56:46;4.60;;;3.53;;
23129;SDS011;11734;51.046;13.778;2023-01-28T09:59:19;6.33;;;3.60;;
23129;SDS011;11734;51.046;13.778;2023-01-28T10:17:06;5.23;;;3.67;;
23129;SDS011;11734;51.046;13.778;2023-01-28T10:19:43;5.17;;;3.30;;
23129;SDS011;11734;51.046;13.778;2023-01-28T10:22:21;5.67;;;3.60;;
23129;SDS011;11734;51.046;13.778;2023-01-28T10:24:53;3.47;;;2.83;;
23129;SDS011;11734;51.046;13.778;2023-01-28T10:27:27;5.50;;;2.90;;
23129;SDS011;11734;51.046;13.778;2023-01-28T10:29:55;3.53;;;2.87;;
23129;SDS011;11734;51.046;13.778;2023-01-28T10:34:54;4.03;;;2.90;;
23129;SDS011;11734;51.046;13.778;2023-01-28T10:37:25;4.90;;;2.90;;
23129;SDS011;11734;51.046;13.778;2023-01-28T10:39:53;3.73;;;2.90;;
23129;SDS011;11734;51.046;13.778;2023-01-28T10:42:30;3.10;;;2.53;;
23129;SDS011;11734;51.046;13.778;2023-01-28T10:45:02;2.57;;;2.37;;
23129;SDS011;11734;51.046;13.778;2023-01-28T10:47:43;3.60;;;3.13;;
23129;SDS011;11734;51.046;13.778;2023-01-28T10:50:22;2.93;;;2.30;;
23129;SDS011;11734;51.046;13.778;2023-01-28T10:52:58;5.20;;;3.43;;
23129;SDS011;11734;51.046;13.778;2023-01-28T10:55:26;4.63;;;3.30;;
23129;SDS011;11734;51.046;13.778;2023-01-28T10:57:53;3.40;;;2.97;;
23129;SDS011;11734;51.046;13.778;2023-01-28T11:02:49;3.93;;;2.53;;
23129;SDS011;11734;51.046;13.778;2023-01-28T11:05:17;4.67;;;2.93;;
23129;SDS011;11734;51.046;13.778;2023-01-28T11:07:48;3.43;;;3.00;;
23129;SDS011;11734;51.046;13.778;2023-01-28T11:10:32;4.83;;;3.40;;
23129;SDS011;11734;51.046;13.778;2023-01-28T11:13:01;4.93;;;3.00;;
23129;SDS011;11734;51.046;13.778;2023-01-28T11:15:29;4.33;;;2.97;;
23129;SDS011;11734;51.046;13.778;2023-01-28T11:17:57;3.23;;;2.90;;
23129;SDS011;11734;51.046;13.778;2023-01-28T11:20:26;4.70;;;2.80;;
23129;SDS011;11734;51.046;13.778;2023-01-28T11:22:54;3.07;;;2.67;;
23129;SDS011;11734;51.046;13.778;2023-01-28T11:25:29;5.63;;;2.87;;
23129;SDS011;11734;51.046;13.778;2023-01-28T11:27:57;3.83;;;3.07;;
23129;SDS011;11734;51.046;13.778;2023-01-28T11:30:27;4.47;;;3.20;;
23129;SDS011;11734;51.046;13.778;2023-01-28T11:35:41;4.43;;;3.47;;
23129;SDS011;11734;51.046;13.778;2023-01-28T11:38:19;5.37;;;3.17;;
23129;SDS011;11734;51.046;13.778;2023-01-28T11:40:50;3.40;;;3.13;;
23129;SDS011;11734;51.046;13.778;2023-01-28T11:43:19;4.23;;;2.87;;
23129;SDS011;11734;51.046;13.778;2023-01-28T11:50:48;3.67;;;3.00;;
23129;SDS011;11734;51.046;13.778;2023-01-28T11:53:23;4.37;;;2.90;;
23129;SDS011;11734;51.046;13.778;2023-01-28T11:56:19;4.50;;;2.70;;
23129;SDS011;11734;51.046;13.778;2023-01-28T11:59:07;3.83;;;3.03;;
23129;SDS011;11734;51.046;13.778;2023-01-28T12:20:23;3.73;;;2.90;;
23129;SDS011;11734;51.046;13.778;2023-01-28T12:22:58;3.30;;;3.00;;
23129;SDS011;11734;51.046;13.778;2023-01-28T12:33:31;2.70;;;2.50;;
23129;SDS011;11734;51.046;13.778;2023-01-28T12:38:39;2.53;;;2.33;;
23129;SDS011;11734;51.046;13.778;2023-01-28T12:41:09;4.73;;;3.00;;
23129;SDS011;11734;51.046;13.778;2023-01-28T12:43:57;3.93;;;2.83;;
23129;SDS011;11734;51.046;13.778;2023-01-28T12:55:12;3.43;;;2.70;;
23129;SDS011;11734;51.046;13.778;2023-01-28T12:57:41;3.93;;;3.00;;
23129;SDS011;11734;51.046;13.778;2023-01-28T13:02:41;3.70;;;3.03;;
23129;SDS011;11734;51.046;13.778;2023-01-28T13:07:47;5.00;;;3.00;;
23129;SDS011;11734;51.046;13.778;2023-01-28T13:13:02;4.53;;;3.27;;
23129;SDS011;11734;51.046;13.778;2023-01-28T13:15:30;3.70;;;3.20;;
23129;SDS011;11734;51.046;13.778;2023-01-28T13:17:58;3.30;;;3.00;;
23129;SDS011;11734;51.046;13.778;2023-01-28T13:23:20;3.73;;;2.80;;
23129;SDS011;11734;51.046;13.778;2023-01-28T13:25:49;4.93;;;3.10;;
23129;SDS011;11734;51.046;13.778;2023-01-28T13:28:24;4.57;;;3.30;;
23129;SDS011;11734;51.046;13.778;2023-01-28T13:30:59;5.43;;;2.90;;
23129;SDS011;11734;51.046;13.778;2023-01-28T13:33:28;5.57;;;3.40;;
23129;SDS011;11734;51.046;13.778;2023-01-28T13:35:55;4.53;;;2.97;;
23129;SDS011;11734;51.046;13.778;2023-01-28T13:38:24;3.70;;;3.07;;
23129;SDS011;11734;51.046;13.778;2023-01-28T13:40:58;3.77;;;3.30;;
23129;SDS011;11734;51.046;13.778;2023-01-28T13:43:34;3.40;;;2.90;;
23129;SDS011;11734;51.046;13.778;2023-01-28T13:46:07;4.00;;;3.07;;
23129;SDS011;11734;51.046;13.778;2023-01-28T13:48:45;5.50;;;3.03;;
23129;SDS011;11734;51.046;13.778;2023-01-28T13:51:21;4.03;;;3.43;;
23129;SDS011;11734;51.046;13.778;2023-01-28T13:56:31;3.73;;;3.30;;
23129;SDS011;11734;51.046;13.778;2023-01-28T14:01:52;4.03;;;3.33;;
23129;SDS011;11734;51.046;13.778;2023-01-28T14:07:10;5.27;;;3.70;;
23129;SDS011;11734;51.046;13.778;2023-01-28T14:09:57;4.43;;;3.50;;
23129;SDS011;11734;51.046;13.778;2023-01-28T14:12:32;3.93;;;3.10;;
23129;SDS011;11734;51.046;13.778;2023-01-28T14:17:43;7.67;;;5.27;;
23129;SDS011;11734;51.046;13.778;2023-01-28T14:20:14;4.07;;;3.50;;
23129;SDS011;11734;51.046;13.778;2023-01-28T14:22:43;3.47;;;3.17;;
23129;SDS011;11734;51.046;13.778;2023-01-28T14:25:11;6.87;;;3.80;;
23129;SDS011;11734;51.046;13.778;2023-01-28T14:27:43;3.57;;;3.20;;
23129;SDS011;11734;51.046;13.778;2023-01-28T14:32:58;6.37;;;3.43;;
23129;SDS011;11734;51.046;13.778;2023-01-28T14:35:32;3.40;;;3.07;;
23129;SDS011;11734;51.046;13.778;2023-01-28T14:38:04;5.00;;;3.13;;
23129;SDS011;11734;51.046;13.778;2023-01-28T14:40:35;4.50;;;3.23;;
23129;SDS011;11734;51.046;13.778;2023-01-28T14:43:05;3.93;;;3.33;;
23129;SDS011;11734;51.046;13.778;2023-01-28T14:45:37;3.93;;;3.53;;
23129;SDS011;11734;51.046;13.778;2023-01-28T14:58:35;3.30;;;2.80;;
23129;SDS011;11734;51.046;13.778;2023-01-28T15:01:03;3.83;;;2.90;;
23129;SDS011;11734;51.046;13.778;2023-01-28T15:03:30;5.37;;;2.80;;
23129;SDS011;11734;51.046;13.778;2023-01-28T15:06:02;3.00;;;2.70;;
23129;SDS011;11734;51.046;13.778;2023-01-28T15:08:30;3.03;;;2.63;;
23129;SDS011;11734;51.046;13.778;2023-01-28T15:10:57;2.73;;;2.20;;
23129;SDS011;11734;51.046;13.778;2023-01-28T15:13:27;3.30;;;2.30;;
23129;SDS011;11734;51.046;13.778;2023-01-28T15:15:55;2.97;;;2.10;;
23129;SDS011;11734;51.046;13.778;2023-01-28T15:18:28;2.43;;;2.20;;
23129;SDS011;11734;51.046;13.778;2023-01-28T15:20:56;5.17;;;2.77;;
23129;SDS011;11734;51.046;13.778;2023-01-28T15:23:25;3.07;;;2.40;;
23129;SDS011;11734;51.046;13.778;2023-01-28T15:25:53;2.63;;;2.23;;
23129;SDS011;11734;51.046;13.778;2023-01-28T15:28:25;2.90;;;2.60;;
23129;SDS011;11734;51.046;13.778;2023-01-28T15:30:53;4.87;;;2.27;;
23129;SDS011;11734;51.046;13.778;2023-01-28T15:33:21;3.00;;;2.30;;
23129;SDS011;11734;51.046;13.778;2023-01-28T15:35:49;2.90;;;2.10;;
23129;SDS011;11734;51.046;13.778;2023-01-28T15:38:17;2.97;;;2.30;;
23129;SDS011;11734;51.046;13.778;2023-01-28T15:40:54;2.83;;;2.20;;
23129;SDS011;11734;51.046;13.778;2023-01-28T15:43:26;5.80;;;3.13;;
23129;SDS011;11734;51.046;13.778;2023-01-28T15:45:55;3.73;;;2.53;;
23129;SDS011;11734;51.046;13.778;2023-01-28T15:48:23;4.20;;;2.90;;
23129;SDS011;11734;51.046;13.778;2023-01-28T15:51:02;3.17;;;2.57;;
23129;SDS011;11734;51.046;13.778;2023-01-28T15:53:41;2.63;;;2.20;;
23129;SDS011;11734;51.046;13.778;2023-01-28T15:56:10;2.57;;;2.30;;
23129;SDS011;11734;51.046;13.778;2023-01-28T15:58:38;2.63;;;2.07;;
23129;SDS011;11734;51.046;13.778;2023-01-28T16:03:36;3.47;;;2.43;;
23129;SDS011;11734;51.046;13.778;2023-01-28T16:06:07;2.40;;;2.10;;
23129;SDS011;11734;51.046;13.778;2023-01-28T16:08:46;3.23;;;2.30;;
23129;SDS011;11734;51.046;13.778;2023-01-28T16:11:23;4.47;;;2.30;;
23129;SDS011;11734;51.046;13.778;2023-01-28T16:13:51;2.77;;;2.30;;
23129;SDS011;11734;51.046;13.778;2023-01-28T16:16:29;3.23;;;2.00;;
23129;SDS011;11734;51.046;13.778;2023-01-28T16:18:57;5.03;;;4.10;;
23129;SDS011;11734;51.046;13.778;2023-01-28T16:21:30;11.37;;;6.93;;
23129;SDS011;11734;51.046;13.778;2023-01-28T16:24:01;20.87;;;14.60;;
23129;SDS011;11734;51.046;13.778;2023-01-28T16:26:30;3.30;;;2.50;;
23129;SDS011;11734;51.046;13.778;2023-01-28T16:29:12;4.13;;;2.40;;
23129;SDS011;11734;51.046;13.778;2023-01-28T16:31:41;3.40;;;2.50;;
23129;SDS011;11734;51.046;13.778;2023-01-28T16:34:09;4.27;;;2.50;;
23129;SDS011;11734;51.046;13.778;2023-01-28T16:36:36;2.60;;;2.30;;
23129;SDS011;11734;51.046;13.778;2023-01-28T16:39:04;3.73;;;2.40;;
23129;SDS011;11734;51.046;13.778;2023-01-28T16:41:33;2.50;;;2.30;;
23129;SDS011;11734;51.046;13.778;2023-01-28T16:44:01;3.00;;;2.50;;
23129;SDS011;11734;51.046;13.778;2023-01-28T16:46:31;2.17;;;2.00;;
23129;SDS011;11734;51.046;13.778;2023-01-28T16:48:58;3.70;;;2.20;;
23129;SDS011;11734;51.046;13.778;2023-01-28T16:51:26;2.80;;;2.10;;
23129;SDS011;11734;51.046;13.778;2023-01-28T16:53:53;3.00;;;2.27;;
23129;SDS011;11734;51.046;13.778;2023-01-28T16:56:22;3.90;;;2.50;;
23129;SDS011;11734;51.046;13.778;2023-01-28T16:59:09;3.83;;;2.40;;
23129;SDS011;11734;51.046;13.778;2023-01-28T17:01:37;3.17;;;2.10;;
23129;SDS011;11734;51.046;13.778;2023-01-28T17:04:05;2.47;;;2.27;;
23129;SDS011;11734;51.046;13.778;2023-01-28T17:06:39;3.10;;;2.80;;